sensor_id;sensor_type;location;lat;lon;timestamp;P1;durP1;ratioP1;P2;durP2;ratioP2
46983;SDS011;34732;52.112;9.366;2023-05-10T08:40:46;4.53;;;0.93;;
46983;SDS011;34732;52.112;9.366;2023-05-10T08:44:15;5.03;;;0.90;;
46983;SDS011;34732;52.112;9.366;2023-05-10T08:47:44;4.75;;;0.95;;
46983;SDS011;34732;52.112;9.366;2023-05-10T08:51:14;2.60;;;0.93;;
46983;SDS011;34732;52.112;9.366;2023-05-10T08:54:38;5.67;;;0.90;;
46983;SDS011;34732;52.112;9.366;2023-05-10T08:58:05;3.05;;;1.00;;
46983;SDS011;34732;52.112;9.366;2023-05-10T09:01:26;2.72;;;0.80;;
46983;SDS011;34732;52.112;9.366;2023-05-10T09:04:48;3.13;;;0.75;;
46983;SDS011;34732;52.112;9.366;2023-05-10T09:08:14;3.15;;;1.00;;
46983;SDS011;34732;52.112;9.366;2023-05-10T09:11:36;1.85;;;0.70;;
46983;SDS011;34732;52.112;9.366;2023-05-10T09:15:02;2.22;;;0.80;;
46983;SDS011;34732;52.112;9.366;2023-05-10T09:18:29;2.22;;;0.82;;
46983;SDS011;34732;52.112;9.366;2023-05-10T09:21:52;2.70;;;0.95;;
46983;SDS011;34732;52.112;9.366;2023-05-10T09:25:19;1.98;;;0.60;;
46983;SDS011;34732;52.112;9.366;2023-05-10T09:28:50;2.53;;;0.68;;
46983;SDS011;34732;52.112;9.366;2023-05-10T09:32:12;2.30;;;0.70;;
46983;SDS011;34732;52.112;9.366;2023-05-10T09:35:38;1.30;;;0.80;;
46983;SDS011;34732;52.112;9.366;2023-05-10T09:39:06;2.17;;;0.98;;
46983;SDS011;34732;52.112;9.366;2023-05-10T09:42:29;2.35;;;0.70;;
46983;SDS011;34732;52.112;9.366;2023-05-10T09:45:58;1.98;;;0.50;;
46983;SDS011;34732;52.112;9.366;2023-05-10T09:49:24;1.60;;;0.82;;
46983;SDS011;34732;52.112;9.366;2023-05-10T09:56:36;2.25;;;0.95;;
46983;SDS011;34732;52.112;9.366;2023-05-10T10:00:03;1.73;;;0.60;;
46983;SDS011;34732;52.112;9.366;2023-05-10T10:03:34;1.80;;;0.77;;
46983;SDS011;34732;52.112;9.366;2023-05-10T10:07:14;2.20;;;0.80;;
46983;SDS011;34732;52.112;9.366;2023-05-10T10:10:41;3.42;;;0.80;;
46983;SDS011;34732;52.112;9.366;2023-05-10T10:14:10;1.45;;;0.70;;
46983;SDS011;34732;52.112;9.366;2023-05-10T10:17:42;1.20;;;0.70;;
46983;SDS011;34732;52.112;9.366;2023-05-10T10:21:06;1.45;;;1.00;;
46983;SDS011;34732;52.112;9.366;2023-05-10T10:24:32;2.25;;;1.00;;
46983;SDS011;34732;52.112;9.366;2023-05-10T10:28:11;12.25;;;4.28;;
46983;SDS011;34732;52.112;9.366;2023-05-10T10:31:48;33.55;;;13.38;;
46983;SDS011;34732;52.112;9.366;2023-05-10T10:35:16;25.75;;;9.20;;
46983;SDS011;34732;52.112;9.366;2023-05-10T10:42:11;72.85;;;27.23;;
46983;SDS011;34732;52.112;9.366;2023-05-10T10:45:33;82.45;;;29.83;;
46983;SDS011;34732;52.112;9.366;2023-05-10T10:49:09;75.15;;;28.20;;
46983;SDS011;34732;52.112;9.366;2023-05-10T10:52:36;61.65;;;25.08;;
46983;SDS011;34732;52.112;9.366;2023-05-10T10:56:07;61.25;;;26.08;;
46983;SDS011;34732;52.112;9.366;2023-05-10T10:59:44;54.88;;;21.95;;
46983;SDS011;34732;52.112;9.366;2023-05-10T11:03:09;50.33;;;22.70;;
46983;SDS011;34732;52.112;9.366;2023-05-10T11:06:35;49.55;;;20.38;;
46983;SDS011;34732;52.112;9.366;2023-05-10T11:10:04;47.78;;;19.25;;
46983;SDS011;34732;52.112;9.366;2023-05-10T11:13:28;40.33;;;17.40;;
46983;SDS011;34732;52.112;9.366;2023-05-10T11:16:52;38.17;;;16.67;;
46983;SDS011;34732;52.112;9.366;2023-05-10T11:20:18;40.95;;;16.33;;
46983;SDS011;34732;52.112;9.366;2023-05-10T11:27:10;33.60;;;13.73;;
46983;SDS011;34732;52.112;9.366;2023-05-10T11:30:34;29.25;;;13.88;;
46983;SDS011;34732;52.112;9.366;2023-05-10T11:33:57;36.95;;;16.75;;
46983;SDS011;34732;52.112;9.366;2023-05-10T11:37:21;33.30;;;16.88;;
46983;SDS011;34732;52.112;9.366;2023-05-10T11:40:45;37.58;;;18.15;;
46983;SDS011;34732;52.112;9.366;2023-05-10T11:44:06;38.13;;;18.77;;
46983;SDS011;34732;52.112;9.366;2023-05-10T11:47:32;34.17;;;17.85;;
46983;SDS011;34732;52.112;9.366;2023-05-10T11:50:56;33.53;;;17.88;;
46983;SDS011;34732;52.112;9.366;2023-05-10T11:54:19;43.58;;;20.17;;
46983;SDS011;34732;52.112;9.366;2023-05-10T11:57:45;40.25;;;19.30;;
46983;SDS011;34732;52.112;9.366;2023-05-10T12:01:09;47.75;;;22.20;;
46983;SDS011;34732;52.112;9.366;2023-05-10T12:04:37;48.25;;;26.10;;
46983;SDS011;34732;52.112;9.366;2023-05-10T12:08:13;58.00;;;28.95;;
46983;SDS011;34732;52.112;9.366;2023-05-10T12:11:38;58.38;;;32.22;;
46983;SDS011;34732;52.112;9.366;2023-05-10T12:15:04;71.93;;;39.08;;
46983;SDS011;34732;52.112;9.366;2023-05-10T12:18:31;74.70;;;38.83;;
46983;SDS011;34732;52.112;9.366;2023-05-10T12:21:52;67.05;;;37.70;;
46983;SDS011;34732;52.112;9.366;2023-05-10T12:25:13;86.18;;;44.90;;
46983;SDS011;34732;52.112;9.366;2023-05-10T12:28:37;82.22;;;42.03;;
46983;SDS011;34732;52.112;9.366;2023-05-10T12:32:11;62.38;;;32.95;;
46983;SDS011;34732;52.112;9.366;2023-05-10T12:39:06;48.83;;;26.47;;
46983;SDS011;34732;52.112;9.366;2023-05-10T12:42:27;46.38;;;22.63;;
46983;SDS011;34732;52.112;9.366;2023-05-10T12:45:48;47.08;;;21.98;;
46983;SDS011;34732;52.112;9.366;2023-05-10T12:49:09;40.05;;;20.20;;
46983;SDS011;34732;52.112;9.366;2023-05-10T12:52:37;37.78;;;18.10;;
46983;SDS011;34732;52.112;9.366;2023-05-10T12:55:59;35.58;;;17.52;;
46983;SDS011;34732;52.112;9.366;2023-05-10T12:59:24;27.67;;;14.23;;
46983;SDS011;34732;52.112;9.366;2023-05-10T13:02:48;26.45;;;12.95;;
46983;SDS011;34732;52.112;9.366;2023-05-10T13:09:36;23.90;;;12.40;;
46983;SDS011;34732;52.112;9.366;2023-05-10T13:13:00;20.77;;;11.02;;
46983;SDS011;34732;52.112;9.366;2023-05-10T13:16:33;22.33;;;10.52;;
46983;SDS011;34732;52.112;9.366;2023-05-10T13:19:59;18.15;;;9.95;;
46983;SDS011;34732;52.112;9.366;2023-05-10T13:23:28;21.98;;;9.68;;
46983;SDS011;34732;52.112;9.366;2023-05-10T13:26:51;22.52;;;9.07;;
46983;SDS011;34732;52.112;9.366;2023-05-10T13:30:17;16.35;;;7.70;;
46983;SDS011;34732;52.112;9.366;2023-05-10T13:33:39;19.08;;;7.90;;
46983;SDS011;34732;52.112;9.366;2023-05-10T13:37:05;14.15;;;7.80;;
46983;SDS011;34732;52.112;9.366;2023-05-10T13:40:31;13.63;;;7.60;;
46983;SDS011;34732;52.112;9.366;2023-05-10T13:43:57;16.20;;;7.30;;
46983;SDS011;34732;52.112;9.366;2023-05-10T13:47:18;17.13;;;6.93;;
46983;SDS011;34732;52.112;9.366;2023-05-10T13:50:44;10.57;;;6.22;;
46983;SDS011;34732;52.112;9.366;2023-05-10T13:54:05;10.98;;;6.05;;
46983;SDS011;34732;52.112;9.366;2023-05-10T13:57:36;11.27;;;5.90;;
46983;SDS011;34732;52.112;9.366;2023-05-10T14:00:57;12.25;;;6.03;;
46983;SDS011;34732;52.112;9.366;2023-05-10T14:04:20;11.02;;;5.75;;
46983;SDS011;34732;52.112;9.366;2023-05-10T14:07:49;7.45;;;5.05;;
46983;SDS011;34732;52.112;9.366;2023-05-10T14:11:20;8.98;;;5.15;;
46983;SDS011;34732;52.112;9.366;2023-05-10T14:18:46;7.88;;;4.88;;
46983;SDS011;34732;52.112;9.366;2023-05-10T14:22:09;8.63;;;5.25;;
46983;SDS011;34732;52.112;9.366;2023-05-10T14:25:31;6.28;;;3.90;;
46983;SDS011;34732;52.112;9.366;2023-05-10T14:28:54;9.05;;;5.07;;
46983;SDS011;34732;52.112;9.366;2023-05-10T14:32:20;11.00;;;4.97;;
46983;SDS011;34732;52.112;9.366;2023-05-10T14:35:44;6.18;;;4.45;;
46983;SDS011;34732;52.112;9.366;2023-05-10T14:39:26;6.78;;;4.30;;
46983;SDS011;34732;52.112;9.366;2023-05-10T14:42:50;5.82;;;3.90;;
46983;SDS011;34732;52.112;9.366;2023-05-10T14:46:13;6.70;;;4.57;;
46983;SDS011;34732;52.112;9.366;2023-05-10T14:49:41;7.28;;;4.43;;
46983;SDS011;34732;52.112;9.366;2023-05-10T14:53:07;6.70;;;4.82;;
46983;SDS011;34732;52.112;9.366;2023-05-10T14:56:31;6.40;;;4.03;;
46983;SDS011;34732;52.112;9.366;2023-05-10T14:59:59;6.35;;;3.90;;
46983;SDS011;34732;52.112;9.366;2023-05-10T15:03:25;5.10;;;3.67;;
46983;SDS011;34732;52.112;9.366;2023-05-10T15:06:48;7.22;;;4.78;;
46983;SDS011;34732;52.112;9.366;2023-05-10T15:10:15;5.60;;;4.20;;
46983;SDS011;34732;52.112;9.366;2023-05-10T15:13:39;4.47;;;3.53;;
46983;SDS011;34732;52.112;9.366;2023-05-10T15:17:06;6.60;;;4.20;;
46983;SDS011;34732;52.112;9.366;2023-05-10T15:20:30;4.90;;;3.95;;
46983;SDS011;34732;52.112;9.366;2023-05-10T15:23:56;8.25;;;4.25;;
46983;SDS011;34732;52.112;9.366;2023-05-10T15:27:17;6.50;;;3.92;;
46983;SDS011;34732;52.112;9.366;2023-05-10T15:30:43;6.78;;;4.05;;
46983;SDS011;34732;52.112;9.366;2023-05-10T15:34:06;6.78;;;4.53;;
46983;SDS011;34732;52.112;9.366;2023-05-10T15:37:30;5.35;;;4.30;;
46983;SDS011;34732;52.112;9.366;2023-05-10T15:44:44;7.18;;;3.83;;
46983;SDS011;34732;52.112;9.366;2023-05-10T15:51:34;5.72;;;4.18;;
46983;SDS011;34732;52.112;9.366;2023-05-10T15:54:57;6.90;;;4.25;;
46983;SDS011;34732;52.112;9.366;2023-05-10T15:58:20;6.80;;;4.53;;
46983;SDS011;34732;52.112;9.366;2023-05-10T16:01:44;6.68;;;4.25;;
46983;SDS011;34732;52.112;9.366;2023-05-10T16:05:10;5.68;;;4.70;;
46983;SDS011;34732;52.112;9.366;2023-05-10T16:08:34;6.85;;;4.63;;
46983;SDS011;34732;52.112;9.366;2023-05-10T16:11:58;5.88;;;3.80;;
46983;SDS011;34732;52.112;9.366;2023-05-10T16:18:43;6.43;;;4.05;;
46983;SDS011;34732;52.112;9.366;2023-05-10T16:22:07;9.02;;;4.40;;
46983;SDS011;34732;52.112;9.366;2023-05-10T16:25:31;5.85;;;4.40;;
46983;SDS011;34732;52.112;9.366;2023-05-10T16:28:57;6.85;;;4.30;;
46983;SDS011;34732;52.112;9.366;2023-05-10T16:32:21;7.47;;;4.05;;
46983;SDS011;34732;52.112;9.366;2023-05-10T16:35:49;9.30;;;4.10;;
46983;SDS011;34732;52.112;9.366;2023-05-10T16:39:13;5.68;;;4.10;;
46983;SDS011;34732;52.112;9.366;2023-05-10T16:42:36;5.28;;;4.07;;
46983;SDS011;34732;52.112;9.366;2023-05-10T16:45:58;11.55;;;4.00;;
46983;SDS011;34732;52.112;9.366;2023-05-10T16:49:26;9.98;;;3.97;;
46983;SDS011;34732;52.112;9.366;2023-05-10T16:52:47;12.85;;;4.35;;
46983;SDS011;34732;52.112;9.366;2023-05-10T16:56:15;9.90;;;4.35;;
46983;SDS011;34732;52.112;9.366;2023-05-10T16:59:41;16.33;;;4.07;;
46983;SDS011;34732;52.112;9.366;2023-05-10T17:03:05;11.45;;;4.05;;
46983;SDS011;34732;52.112;9.366;2023-05-10T17:06:26;17.23;;;4.85;;
46983;SDS011;34732;52.112;9.366;2023-05-10T17:09:47;15.02;;;4.80;;
46983;SDS011;34732;52.112;9.366;2023-05-10T17:13:13;22.00;;;5.63;;
46983;SDS011;34732;52.112;9.366;2023-05-10T17:16:40;19.10;;;4.57;;
46983;SDS011;34732;52.112;9.366;2023-05-10T17:20:06;14.45;;;4.72;;
46983;SDS011;34732;52.112;9.366;2023-05-10T17:23:32;13.30;;;4.43;;
46983;SDS011;34732;52.112;9.366;2023-05-10T17:26:58;11.50;;;4.07;;
46983;SDS011;34732;52.112;9.366;2023-05-10T17:30:25;13.25;;;4.43;;
46983;SDS011;34732;52.112;9.366;2023-05-10T17:33:50;8.55;;;4.47;;
46983;SDS011;34732;52.112;9.366;2023-05-10T17:37:16;8.93;;;4.25;;
46983;SDS011;34732;52.112;9.366;2023-05-10T17:40:47;14.27;;;4.50;;
46983;SDS011;34732;52.112;9.366;2023-05-10T17:44:11;12.57;;;3.95;;
46983;SDS011;34732;52.112;9.366;2023-05-10T17:47:32;9.55;;;3.53;;
46983;SDS011;34732;52.112;9.366;2023-05-10T17:50:59;12.35;;;3.85;;
46983;SDS011;34732;52.112;9.366;2023-05-10T17:54:24;9.25;;;3.60;;
46983;SDS011;34732;52.112;9.366;2023-05-10T17:57:48;10.43;;;3.88;;
46983;SDS011;34732;52.112;9.366;2023-05-10T18:01:09;9.40;;;3.65;;
46983;SDS011;34732;52.112;9.366;2023-05-10T18:04:33;9.60;;;3.67;;
46983;SDS011;34732;52.112;9.366;2023-05-10T18:07:54;5.57;;;3.00;;
46983;SDS011;34732;52.112;9.366;2023-05-10T18:11:16;7.75;;;3.05;;
46983;SDS011;34732;52.112;9.366;2023-05-10T18:14:43;10.02;;;3.88;;
46983;SDS011;34732;52.112;9.366;2023-05-10T18:18:10;6.18;;;3.40;;
46983;SDS011;34732;52.112;9.366;2023-05-10T18:21:34;5.07;;;3.47;;
46983;SDS011;34732;52.112;9.366;2023-05-10T18:24:57;8.05;;;3.85;;
46983;SDS011;34732;52.112;9.366;2023-05-10T18:28:23;8.05;;;3.53;;
46983;SDS011;34732;52.112;9.366;2023-05-10T18:31:49;6.07;;;2.80;;
46983;SDS011;34732;52.112;9.366;2023-05-10T18:35:12;5.07;;;3.08;;
46983;SDS011;34732;52.112;9.366;2023-05-10T18:38:36;11.93;;;3.38;;
46983;SDS011;34732;52.112;9.366;2023-05-10T18:41:59;6.13;;;3.20;;
46983;SDS011;34732;52.112;9.366;2023-05-10T18:45:21;8.43;;;3.70;;
46983;SDS011;34732;52.112;9.366;2023-05-10T18:48:47;6.25;;;2.65;;
46983;SDS011;34732;52.112;9.366;2023-05-10T18:52:11;7.18;;;3.53;;
46983;SDS011;34732;52.112;9.366;2023-05-10T18:55:35;5.45;;;2.97;;
46983;SDS011;34732;52.112;9.366;2023-05-10T18:58:59;7.30;;;3.28;;
46983;SDS011;34732;52.112;9.366;2023-05-10T19:02:23;6.93;;;2.78;;
46983;SDS011;34732;52.112;9.366;2023-05-10T19:05:46;4.53;;;3.10;;
46983;SDS011;34732;52.112;9.366;2023-05-10T19:09:12;6.28;;;2.85;;
46983;SDS011;34732;52.112;9.366;2023-05-10T19:12:35;6.30;;;3.20;;
46983;SDS011;34732;52.112;9.366;2023-05-10T19:16:01;7.93;;;2.97;;
46983;SDS011;34732;52.112;9.366;2023-05-10T19:19:27;6.75;;;3.28;;
46983;SDS011;34732;52.112;9.366;2023-05-10T19:22:52;7.00;;;2.85;;
46983;SDS011;34732;52.112;9.366;2023-05-10T19:26:14;4.88;;;2.60;;
46983;SDS011;34732;52.112;9.366;2023-05-10T19:29:35;5.95;;;2.72;;
46983;SDS011;34732;52.112;9.366;2023-05-10T19:32:58;9.10;;;3.03;;
46983;SDS011;34732;52.112;9.366;2023-05-10T19:36:24;14.15;;;2.92;;
46983;SDS011;34732;52.112;9.366;2023-05-10T19:39:48;4.97;;;2.92;;
